Pagrindinis puslapis
METAR-TAF:

METAR-TAF

Oro uostai :

Linton-on-Ouse, Anglija

platuma: 54-03N, ilguma: 001-15W, Aukštis: 16 m

Dabartinis oras

Ataskaita buvo paskelbta 52 minutes, ne 12:50 UTC
Vėjas 12 kt iš Pietvakarių
Temperatūra 6°C
Drėgmė 75%
Slėgis 1014 hPa
Matomumas 10 km arba daugiau

METAR: EGXU 191250Z AUTO 22012KT 9999 BKN022/// SCT042/// 06/02 Q1014

Laikas: 13:42 (13:42 UTC)

Prognozė

Ataskaita buvo paskelbta 2 valandos ir 58 minutes, ne 10:44 UTC
Prognozė galioja nuo 19 metu 12 UTC su 19 metu 19 UTC
Vėjas 12 kt iš Pietų
Matomumas 10 km arba daugiau
Mažai debesys ne aukštis 2000 ft
Tapsmas
nuo 19 metu 12 UTC su 19 metu 15 UTC
Su prošvaistėmis ne aukštis 1600 ft
Tikimybė 40% :
Laikinai
nuo 19 metu 15 UTC su 19 metu 19 UTC
Su prošvaistėmis ne aukštis 2500 ft

TAF: EGXU 191044Z 1912/1919 19012KT 9999 FEW020 BECMG 1912/1915 BKN016 PROB40 TEMPO 1915/1919 BKN025

Orai ataskaitas ir orų prognozės (METAR, TAF).

turimą stotys yra geltonos ir raudonos taškus žemėlapyje.

Perkelti pele per norėdami pamatyti stoties vardą.

Tada spustelėkite, norėdami matyti oro stebėjimo ir prognozės.

Norėdami pakeisti žemėlapį: spustelėkite ant žalios mygtukų su juodo kryžiaus žemyn,; žalią mygtuką su brūkšneliu, jei norite nutolinti; arba žalių rodyklių gretimoms žemėlapius.


METAR-TAF: